createdAt,value
2023-06-15T04:01:14.067Z,14.84
2023-06-15T04:05:25.988Z,14.67
2023-06-15T04:09:38.121Z,14.83
2023-06-15T04:13:49.834Z,14.67
2023-06-15T04:18:01.673Z,14.84
2023-06-15T04:22:14.325Z,14.81
2023-06-15T04:26:27.386Z,14.84
2023-06-15T04:30:46.725Z,14.87
2023-06-15T04:35:02.444Z,14.85
2023-06-15T04:39:14.298Z,14.83
2023-06-15T04:43:26.311Z,14.84
2023-06-15T04:47:38.539Z,14.69
2023-06-15T04:51:52.017Z,14.83
2023-06-15T04:56:04.397Z,14.94
2023-06-15T05:00:16.382Z,14.82
2023-06-15T05:04:34.313Z,15.00
2023-06-15T05:08:46.136Z,16.87
2023-06-15T05:13:11.068Z,19.14
2023-06-15T05:17:29.049Z,21.20
2023-06-15T05:21:52.868Z,22.14
2023-06-15T05:26:09.403Z,23.51
2023-06-15T05:30:34.692Z,24.56
2023-06-15T05:34:47.182Z,24.60
2023-06-15T05:38:59.117Z,25.61
2023-06-15T05:43:11.091Z,26.11
2023-06-15T05:47:23.241Z,26.40
2023-06-15T05:51:35.118Z,26.87
2023-06-15T05:55:47.249Z,26.06
2023-06-15T06:00:00.434Z,26.41
2023-06-15T06:04:12.069Z,25.79
2023-06-15T06:08:24.689Z,26.10
2023-06-15T06:12:36.864Z,26.29
2023-06-15T06:16:48.435Z,26.90
2023-06-15T06:21:01.204Z,26.63
2023-06-15T06:25:13.216Z,26.46
2023-06-15T06:29:24.884Z,25.48
2023-06-15T06:33:38.329Z,24.68
2023-06-15T06:37:50.324Z,24.28
2023-06-15T06:42:02.104Z,22.21
2023-06-15T06:46:23.426Z,22.08
2023-06-15T06:50:35.194Z,22.12
2023-06-15T06:54:46.740Z,22.01
2023-06-15T06:58:58.265Z,21.29
2023-06-15T07:03:10.075Z,21.81
2023-06-15T07:07:21.741Z,21.43
2023-06-15T07:11:33.333Z,21.43
2023-06-15T07:15:44.893Z,22.34
2023-06-15T07:19:56.435Z,22.67
2023-06-15T07:24:08.055Z,22.47
2023-06-15T07:28:20.553Z,22.42
2023-06-15T07:32:32.181Z,22.00
2023-06-15T07:36:43.816Z,22.49
2023-06-15T07:40:55.526Z,22.68
2023-06-15T07:45:07.740Z,22.57
2023-06-15T07:49:26.726Z,22.68
2023-06-15T07:53:44.538Z,22.67
2023-06-15T07:57:56.106Z,22.77
2023-06-15T08:02:07.779Z,22.71
2023-06-15T08:06:19.349Z,22.59
2023-06-15T08:10:30.925Z,23.33
2023-06-15T08:14:42.496Z,22.97
2023-06-15T08:18:54.045Z,22.50
2023-06-15T08:23:06.110Z,22.63
2023-06-15T08:27:17.658Z,22.65
2023-06-15T08:31:31.130Z,22.76
2023-06-15T08:35:42.680Z,22.46
2023-06-15T08:39:54.321Z,22.70
2023-06-15T08:44:09.240Z,22.18
2023-06-15T08:48:22.988Z,22.75
2023-06-15T08:52:35.947Z,22.55
2023-06-15T08:56:47.610Z,22.80
2023-06-15T09:01:01.434Z,22.88
2023-06-15T09:05:13.531Z,22.97
2023-06-15T09:09:25.199Z,23.20
2023-06-15T09:13:36.998Z,23.20
2023-06-15T09:17:52.634Z,22.67
2023-06-15T09:22:08.613Z,23.04
2023-06-15T09:26:27.047Z,23.15
2023-06-15T09:30:42.006Z,23.35
2023-06-15T09:35:00.793Z,23.37
2023-06-15T09:39:14.742Z,23.49
2023-06-15T09:43:34.893Z,23.31
2023-06-15T09:47:46.562Z,23.63
2023-06-15T09:51:58.615Z,23.50
2023-06-15T10:00:42.615Z,23.64
2023-06-15T10:04:54.905Z,23.64
2023-06-15T10:09:09.657Z,23.79
2023-06-15T10:13:30.394Z,23.70
2023-06-15T10:17:47.319Z,23.64
2023-06-15T10:21:59.206Z,23.89
2023-06-15T10:26:10.961Z,23.95
2023-06-15T10:30:29.666Z,23.89
2023-06-15T10:34:57.499Z,23.97
2023-06-15T10:39:09.793Z,24.12
2023-06-15T10:43:23.001Z,24.36
2023-06-15T10:47:34.574Z,24.62
2023-06-15T10:51:52.602Z,24.32
2023-06-15T10:56:12.925Z,24.56
2023-06-15T11:00:26.141Z,24.80
2023-06-15T11:04:37.858Z,24.75
2023-06-15T11:09:06.094Z,24.75
2023-06-15T11:13:25.534Z,25.27
2023-06-15T11:18:04.192Z,25.18
2023-06-15T11:22:27.111Z,25.51
2023-06-15T11:26:44.610Z,25.11
2023-06-15T11:30:56.463Z,24.95
2023-06-15T11:35:11.503Z,25.02
2023-06-15T11:39:24.026Z,25.42
2023-06-15T11:43:38.879Z,25.76
2023-06-15T11:47:50.570Z,25.40
2023-06-15T11:52:03.314Z,25.22
2023-06-15T11:56:16.829Z,24.92
2023-06-15T12:00:28.892Z,24.35
2023-06-15T12:04:40.726Z,24.91
2023-06-15T12:08:55.627Z,25.21
2023-06-15T12:13:13.897Z,24.53
2023-06-15T12:17:32.356Z,24.20
2023-06-15T12:21:44.826Z,24.41
2023-06-15T12:25:57.863Z,25.02
2023-06-15T12:30:14.913Z,25.51
2023-06-15T12:34:27.226Z,25.67
2023-06-15T12:38:39.821Z,25.65
2023-06-15T12:43:02.690Z,24.89
2023-06-15T12:47:14.225Z,25.02
2023-06-15T12:51:25.965Z,25.68
2023-06-15T12:55:37.649Z,26.11
2023-06-15T12:59:49.275Z,26.32
2023-06-15T13:04:01.405Z,26.12
2023-06-15T13:08:15.507Z,25.24
2023-06-15T13:12:27.051Z,24.93
2023-06-15T13:16:38.705Z,24.55
2023-06-15T13:20:50.325Z,24.63
2023-06-15T13:25:07.630Z,24.83
2023-06-15T13:29:19.171Z,25.02
2023-06-15T13:33:30.696Z,25.74
2023-06-15T13:37:43.187Z,26.07
2023-06-15T13:41:55.418Z,26.45
2023-06-15T13:46:06.966Z,26.88
2023-06-15T13:50:20.160Z,27.08
2023-06-15T13:54:32.308Z,27.05
2023-06-15T13:58:43.831Z,26.92
2023-06-15T14:02:55.494Z,26.79
2023-06-15T14:07:07.280Z,26.26
2023-06-15T14:11:18.896Z,26.85
2023-06-15T14:15:30.493Z,26.86
2023-06-15T14:19:42.052Z,26.76
2023-06-15T14:23:53.690Z,26.96
2023-06-15T14:28:05.606Z,27.26
2023-06-15T14:32:17.354Z,27.60
2023-06-15T14:36:29.002Z,27.47
2023-06-15T14:40:40.630Z,27.48
2023-06-15T14:44:52.451Z,26.96
2023-06-15T14:49:04.871Z,27.36
2023-06-15T14:53:16.710Z,26.79
2023-06-15T14:57:28.621Z,26.91
2023-06-15T15:01:40.216Z,27.26
2023-06-15T15:05:51.781Z,27.50
2023-06-15T15:10:03.785Z,27.27
2023-06-15T15:14:15.412Z,26.91
2023-06-15T15:18:28.116Z,26.75
2023-06-15T15:22:40.608Z,26.95
2023-06-15T15:26:52.186Z,27.09
2023-06-15T15:31:03.735Z,27.09
2023-06-15T15:35:15.293Z,27.32
2023-06-15T15:39:28.327Z,26.89
2023-06-15T15:43:40.032Z,26.59
2023-06-15T15:47:51.882Z,26.33
2023-06-15T15:52:03.581Z,25.61
2023-06-15T15:56:15.114Z,25.63
2023-06-15T16:00:27.128Z,25.61
2023-06-15T16:04:38.821Z,25.35
2023-06-15T16:08:50.475Z,25.30
2023-06-15T16:13:02.129Z,25.41
2023-06-15T16:17:14.356Z,25.48
2023-06-15T16:21:26.464Z,25.52
2023-06-15T16:25:38.058Z,25.97
2023-06-15T16:29:49.591Z,25.68
2023-06-15T16:34:01.252Z,25.61
2023-06-15T16:38:12.828Z,25.72
2023-06-15T16:42:28.145Z,26.08
2023-06-15T16:46:39.681Z,26.30
2023-06-15T16:50:51.420Z,26.01
2023-06-15T16:55:03.570Z,26.22
2023-06-15T16:59:15.095Z,26.31
2023-06-15T17:03:26.832Z,26.15
2023-06-15T17:07:38.574Z,26.29
2023-06-15T17:11:51.033Z,26.22
2023-06-15T17:16:03.328Z,25.78
2023-06-15T17:20:14.976Z,25.23
2023-06-15T17:24:27.818Z,25.03
2023-06-15T17:28:39.620Z,25.12
2023-06-15T17:32:51.156Z,25.32
2023-06-15T17:37:03.550Z,25.43
2023-06-15T17:41:16.093Z,25.43
2023-06-15T17:45:28.012Z,25.22
2023-06-15T17:49:39.559Z,24.76
2023-06-15T17:53:51.113Z,24.52
2023-06-15T17:58:02.668Z,24.43
2023-06-15T18:02:14.233Z,24.16
2023-06-15T18:06:25.821Z,24.12
2023-06-15T18:10:37.355Z,23.96
2023-06-15T18:14:48.903Z,23.86
2023-06-15T18:19:00.567Z,23.83
2023-06-15T18:23:12.427Z,23.75
2023-06-15T18:27:23.981Z,23.66
2023-06-15T18:36:16.190Z,23.54
2023-06-15T18:40:27.824Z,23.50
2023-06-15T18:44:39.407Z,23.50
2023-06-15T18:48:51.479Z,23.52
2023-06-15T18:53:03.767Z,23.59
2023-06-15T18:57:18.035Z,23.58
2023-06-15T19:01:29.644Z,23.50
2023-06-15T19:05:41.254Z,23.33
2023-06-15T19:09:52.957Z,23.22
2023-06-15T19:14:04.995Z,23.13
2023-06-15T19:18:16.886Z,22.93
2023-06-15T19:22:28.534Z,22.82
2023-06-15T19:26:40.608Z,22.61
2023-06-15T19:30:52.194Z,22.44
2023-06-15T19:35:04.067Z,22.31
2023-06-15T19:39:17.708Z,21.96
2023-06-15T19:43:29.371Z,21.84
2023-06-15T19:47:41.502Z,21.58
2023-06-15T19:51:53.189Z,21.43
2023-06-15T19:56:06.926Z,21.36
2023-06-15T20:00:19.000Z,21.13
2023-06-15T20:04:30.960Z,20.95
2023-06-15T20:08:43.789Z,20.81
2023-06-15T20:12:55.481Z,20.64
2023-06-15T20:17:07.145Z,20.46
2023-06-15T20:21:19.560Z,20.35
2023-06-15T20:25:31.156Z,20.15
2023-06-15T20:29:42.738Z,19.93
2023-06-15T20:33:55.346Z,19.73
2023-06-15T20:38:07.336Z,19.61
2023-06-15T20:42:19.033Z,19.54
2023-06-15T20:46:31.664Z,19.39
2023-06-15T20:50:43.374Z,19.21
2023-06-15T20:54:54.942Z,19.08
2023-06-15T20:59:06.511Z,18.93
2023-06-15T21:03:18.449Z,18.81
2023-06-15T21:07:30.101Z,18.76
2023-06-15T21:11:41.642Z,18.68
2023-06-15T21:15:54.190Z,18.61
2023-06-15T21:20:07.061Z,18.43
2023-06-15T21:24:18.685Z,18.44
2023-06-15T21:28:30.260Z,18.05
